Union, KY (41091)

7:21 PM EST on December 03, 2016 (GMT -0500)
APRSWXNET | | Change Station

Elev 908 ft 38.95 °N, 84.66 °W | Updated 23 minutes ago

Overcast
Overcast
41 °F
Feels Like 41 °F
N
0
Wind Variable Wind from SW
Gusts 0.0 mph

Today
High -- | Low -- °F
--% Chance of Precip.
Yesterday
High -- | Low -- °F
Precip. -- in
Pressure 30.31 in
Visibility 10.0 miles
Clouds Mostly Cloudy 3200 ft
Overcast 20000 ft
Windchill 41 °F
Dew Point 33 °F
Humidity 72%
Rainfall in
Snow Depth Not available.
7:40 AM 5:16 PM
Waxing Crescent, 18% visible
METAR KCVG 032352Z COR 33005KT 10SM BKN032 OVC200 03/M02 A3030 RMK AO2 SLP263 T00331017 10050 20028 57003
Pressure 30.31 in
Visibility 10.0 miles
Clouds Mostly Cloudy 3200 ft
Overcast 20000 ft
Windchill 41 °F
Dew Point 33 °F
Humidity 72%
Rainfall in
Snow Depth Not available.
7:40 AM 5:16 PM
Waxing Crescent, 18% visible
METAR KCVG 032352Z COR 33005KT 10SM BKN032 OVC200 03/M02 A3030 RMK AO2 SLP263 T00331017 10050 20028 57003

10-Day Weather Forecast

Almanac

Astronomy

Dec. 03, 2016 Rise Set
Actual Time
Civil Twilight
Nautical Twilight
Astronomical Twilight
Moon
Length of Visible Light
Length of Day
Tomorrow will be .
, % of the Moon is Illuminated

Today's Extremes

State Highs State Lows

Community

WunderPhotos

Upload Photos

1,955,538 photos uploaded!

WunderBlog® & News

Nearby

Air Quality

  Air Quality AQ Index Pollutant
Not available.

Snow Depth

Station Depth Elevation

Earthquake Activity

City Distance Mag. Time & Date
Minimum magnitude displayed is 2.5.

Coastal Water Temperatures

Place Temperature

Stations

Nearby Weather Stations

Station Location Temp. Windchill Dew Point Humidity Wind Precip. Elev Updated Type
                   

Watches & Warnings

There are currently no watches in effect.